sensor_id;sensor_type;location;lat;lon;timestamp;pressure;altitude;pressure_sealevel;temperature;humidity
64192;BME280;50497;50.720;-2.084;2024-03-02T00:02:10;98577.28;;;4.37;100.00
64192;BME280;50497;50.720;-2.084;2024-03-02T00:04:36;98586.25;;;4.34;100.00
64192;BME280;50497;50.720;-2.084;2024-03-02T00:07:02;98604.69;;;4.36;100.00
64192;BME280;50497;50.720;-2.084;2024-03-02T00:09:29;98631.16;;;4.36;100.00
64192;BME280;50497;50.720;-2.084;2024-03-02T00:11:54;98639.00;;;4.21;100.00
64192;BME280;50497;50.720;-2.084;2024-03-02T00:14:20;98648.22;;;4.14;100.00
64192;BME280;50497;50.720;-2.084;2024-03-02T00:16:46;98685.53;;;4.10;100.00
64192;BME280;50497;50.720;-2.084;2024-03-02T00:19:11;98667.31;;;3.70;100.00
64192;BME280;50497;50.720;-2.084;2024-03-02T00:21:37;98662.22;;;3.67;100.00
64192;BME280;50497;50.720;-2.084;2024-03-02T00:24:40;98657.41;;;3.58;100.00
64192;BME280;50497;50.720;-2.084;2024-03-02T00:27:07;98668.91;;;3.57;100.00
64192;BME280;50497;50.720;-2.084;2024-03-02T00:29:32;98667.31;;;3.70;100.00
64192;BME280;50497;50.720;-2.084;2024-03-02T00:31:58;98664.06;;;3.65;100.00
64192;BME280;50497;50.720;-2.084;2024-03-02T00:34:23;98668.44;;;3.66;100.00
64192;BME280;50497;50.720;-2.084;2024-03-02T00:36:50;98678.03;;;3.84;100.00
64192;BME280;50497;50.720;-2.084;2024-03-02T00:39:16;98663.88;;;3.85;100.00
64192;BME280;50497;50.720;-2.084;2024-03-02T00:41:43;98651.75;;;3.81;100.00
64192;BME280;50497;50.720;-2.084;2024-03-02T00:44:15;98674.47;;;3.85;100.00
64192;BME280;50497;50.720;-2.084;2024-03-02T00:46:42;98686.50;;;3.91;100.00
64192;BME280;50497;50.720;-2.084;2024-03-02T00:49:22;98705.56;;;3.98;100.00
64192;BME280;50497;50.720;-2.084;2024-03-02T00:51:52;98727.09;;;4.07;100.00
64192;BME280;50497;50.720;-2.084;2024-03-02T00:54:26;98741.25;;;4.06;100.00
64192;BME280;50497;50.720;-2.084;2024-03-02T00:56:52;98751.22;;;4.01;100.00
64192;BME280;50497;50.720;-2.084;2024-03-02T00:59:20;98769.81;;;4.00;100.00
64192;BME280;50497;50.720;-2.084;2024-03-02T01:01:47;98733.81;;;3.97;100.00
64192;BME280;50497;50.720;-2.084;2024-03-02T01:04:13;98709.94;;;3.99;100.00
64192;BME280;50497;50.720;-2.084;2024-03-02T01:06:39;98680.22;;;3.94;100.00
64192;BME280;50497;50.720;-2.084;2024-03-02T01:09:04;98654.59;;;3.94;100.00
64192;BME280;50497;50.720;-2.084;2024-03-02T01:11:30;98640.44;;;3.95;100.00
64192;BME280;50497;50.720;-2.084;2024-03-02T01:13:55;98643.16;;;3.94;100.00
64192;BME280;50497;50.720;-2.084;2024-03-02T01:16:21;98638.03;;;3.91;100.00
64192;BME280;50497;50.720;-2.084;2024-03-02T01:18:46;98649.22;;;3.96;100.00
64192;BME280;50497;50.720;-2.084;2024-03-02T01:21:12;98660.56;;;3.98;100.00
64192;BME280;50497;50.720;-2.084;2024-03-02T01:23:38;98668.66;;;3.95;100.00
64192;BME280;50497;50.720;-2.084;2024-03-02T01:26:03;98685.06;;;4.01;100.00
64192;BME280;50497;50.720;-2.084;2024-03-02T01:28:29;98692.78;;;4.06;100.00
64192;BME280;50497;50.720;-2.084;2024-03-02T01:30:54;98704.03;;;3.94;100.00
64192;BME280;50497;50.720;-2.084;2024-03-02T01:33:20;98708.50;;;3.92;100.00
64192;BME280;50497;50.720;-2.084;2024-03-02T01:35:46;98725.72;;;4.00;100.00
64192;BME280;50497;50.720;-2.084;2024-03-02T01:38:13;98728.91;;;4.07;100.00
64192;BME280;50497;50.720;-2.084;2024-03-02T01:40:39;98725.22;;;4.10;100.00
64192;BME280;50497;50.720;-2.084;2024-03-02T01:43:05;98729.88;;;4.38;100.00
64192;BME280;50497;50.720;-2.084;2024-03-02T01:45:31;98674.72;;;4.46;100.00
64192;BME280;50497;50.720;-2.084;2024-03-02T01:47:57;98614.78;;;4.45;100.00
64192;BME280;50497;50.720;-2.084;2024-03-02T01:50:31;98592.78;;;4.43;100.00
64192;BME280;50497;50.720;-2.084;2024-03-02T01:52:58;98556.97;;;4.68;100.00
64192;BME280;50497;50.720;-2.084;2024-03-02T01:55:24;98538.44;;;4.68;100.00
64192;BME280;50497;50.720;-2.084;2024-03-02T01:57:51;98513.78;;;4.51;100.00
64192;BME280;50497;50.720;-2.084;2024-03-02T02:00:17;98494.66;;;4.46;100.00
64192;BME280;50497;50.720;-2.084;2024-03-02T02:02:43;98490.31;;;4.45;100.00
64192;BME280;50497;50.720;-2.084;2024-03-02T02:05:09;98471.09;;;4.41;100.00
64192;BME280;50497;50.720;-2.084;2024-03-02T02:07:35;98465.88;;;4.40;100.00
64192;BME280;50497;50.720;-2.084;2024-03-02T02:10:01;98442.78;;;4.28;100.00
64192;BME280;50497;50.720;-2.084;2024-03-02T02:12:26;98448.56;;;4.34;100.00
64192;BME280;50497;50.720;-2.084;2024-03-02T02:14:52;98451.13;;;4.36;100.00
64192;BME280;50497;50.720;-2.084;2024-03-02T02:17:17;98438.75;;;4.36;100.00
64192;BME280;50497;50.720;-2.084;2024-03-02T02:19:43;98451.03;;;4.37;100.00
64192;BME280;50497;50.720;-2.084;2024-03-02T02:22:12;98514.16;;;4.45;100.00
64192;BME280;50497;50.720;-2.084;2024-03-02T02:24:40;98517.19;;;4.07;100.00
64192;BME280;50497;50.720;-2.084;2024-03-02T02:27:07;98493.81;;;3.83;100.00
64192;BME280;50497;50.720;-2.084;2024-03-02T02:29:32;98452.94;;;3.73;100.00
64192;BME280;50497;50.720;-2.084;2024-03-02T02:31:57;98432.66;;;3.58;100.00
64192;BME280;50497;50.720;-2.084;2024-03-02T02:34:23;98405.47;;;3.56;100.00
64192;BME280;50497;50.720;-2.084;2024-03-02T02:36:48;98377.22;;;3.56;100.00
64192;BME280;50497;50.720;-2.084;2024-03-02T02:39:16;98379.84;;;3.56;100.00
64192;BME280;50497;50.720;-2.084;2024-03-02T02:41:43;98390.84;;;3.48;100.00
64192;BME280;50497;50.720;-2.084;2024-03-02T02:44:09;98383.63;;;3.52;100.00
64192;BME280;50497;50.720;-2.084;2024-03-02T02:46:38;98360.84;;;3.49;100.00
64192;BME280;50497;50.720;-2.084;2024-03-02T02:49:03;98338.94;;;3.47;100.00
64192;BME280;50497;50.720;-2.084;2024-03-02T02:51:29;98338.69;;;3.52;100.00
64192;BME280;50497;50.720;-2.084;2024-03-02T02:53:54;98333.28;;;3.54;100.00
64192;BME280;50497;50.720;-2.084;2024-03-02T02:56:19;98339.53;;;3.53;100.00
64192;BME280;50497;50.720;-2.084;2024-03-02T02:58:45;98335.25;;;3.50;100.00
64192;BME280;50497;50.720;-2.084;2024-03-02T03:01:10;98346.84;;;3.63;100.00
64192;BME280;50497;50.720;-2.084;2024-03-02T03:03:36;98346.13;;;3.76;100.00
64192;BME280;50497;50.720;-2.084;2024-03-02T03:06:01;98347.38;;;3.84;100.00
64192;BME280;50497;50.720;-2.084;2024-03-02T03:08:27;98354.97;;;3.91;100.00
64192;BME280;50497;50.720;-2.084;2024-03-02T03:10:53;98339.69;;;3.96;100.00
64192;BME280;50497;50.720;-2.084;2024-03-02T03:13:18;98340.88;;;3.90;100.00
64192;BME280;50497;50.720;-2.084;2024-03-02T03:15:43;98343.44;;;3.92;100.00
64192;BME280;50497;50.720;-2.084;2024-03-02T03:18:09;98350.53;;;3.91;100.00
64192;BME280;50497;50.720;-2.084;2024-03-02T03:20:35;98348.47;;;3.96;100.00
64192;BME280;50497;50.720;-2.084;2024-03-02T03:23:01;98347.97;;;3.89;100.00
64192;BME280;50497;50.720;-2.084;2024-03-02T03:25:26;98355.72;;;3.93;100.00
64192;BME280;50497;50.720;-2.084;2024-03-02T03:27:52;98354.03;;;3.92;100.00
64192;BME280;50497;50.720;-2.084;2024-03-02T03:30:18;98357.25;;;3.97;100.00
64192;BME280;50497;50.720;-2.084;2024-03-02T03:32:43;98364.50;;;3.93;100.00
64192;BME280;50497;50.720;-2.084;2024-03-02T03:35:09;98362.91;;;3.91;100.00
64192;BME280;50497;50.720;-2.084;2024-03-02T03:37:34;98374.97;;;3.80;100.00
64192;BME280;50497;50.720;-2.084;2024-03-02T03:40:00;98381.53;;;3.73;100.00
64192;BME280;50497;50.720;-2.084;2024-03-02T03:42:26;98376.50;;;3.68;100.00
64192;BME280;50497;50.720;-2.084;2024-03-02T03:44:52;98381.72;;;3.70;100.00
64192;BME280;50497;50.720;-2.084;2024-03-02T03:47:17;98373.97;;;3.67;100.00
64192;BME280;50497;50.720;-2.084;2024-03-02T03:49:43;98366.97;;;3.66;100.00
64192;BME280;50497;50.720;-2.084;2024-03-02T03:52:08;98367.47;;;3.57;100.00
64192;BME280;50497;50.720;-2.084;2024-03-02T03:54:34;98364.25;;;3.51;100.00
64192;BME280;50497;50.720;-2.084;2024-03-02T03:56:59;98337.47;;;3.42;100.00
64192;BME280;50497;50.720;-2.084;2024-03-02T03:59:25;98319.59;;;3.31;100.00
64192;BME280;50497;50.720;-2.084;2024-03-02T04:01:50;98305.25;;;3.35;100.00
64192;BME280;50497;50.720;-2.084;2024-03-02T04:04:15;98293.59;;;3.23;100.00
64192;BME280;50497;50.720;-2.084;2024-03-02T04:06:41;98284.00;;;3.22;100.00
64192;BME280;50497;50.720;-2.084;2024-03-02T04:09:06;98266.63;;;3.02;100.00
64192;BME280;50497;50.720;-2.084;2024-03-02T04:11:32;98238.56;;;2.84;100.00
64192;BME280;50497;50.720;-2.084;2024-03-02T04:13:58;98217.56;;;2.66;100.00
64192;BME280;50497;50.720;-2.084;2024-03-02T04:16:23;98202.66;;;2.49;100.00
64192;BME280;50497;50.720;-2.084;2024-03-02T04:18:49;98198.47;;;2.29;100.00
64192;BME280;50497;50.720;-2.084;2024-03-02T04:21:14;98200.47;;;2.24;100.00
64192;BME280;50497;50.720;-2.084;2024-03-02T04:23:39;98192.47;;;2.10;100.00
64192;BME280;50497;50.720;-2.084;2024-03-02T04:26:05;98169.75;;;1.91;100.00
64192;BME280;50497;50.720;-2.084;2024-03-02T04:28:30;98158.91;;;1.96;100.00
64192;BME280;50497;50.720;-2.084;2024-03-02T04:30:56;98140.66;;;1.93;100.00
64192;BME280;50497;50.720;-2.084;2024-03-02T04:33:21;98119.38;;;1.80;100.00
64192;BME280;50497;50.720;-2.084;2024-03-02T04:35:47;98090.19;;;1.83;100.00
64192;BME280;50497;50.720;-2.084;2024-03-02T04:38:13;98094.22;;;1.57;100.00
64192;BME280;50497;50.720;-2.084;2024-03-02T04:40:38;98092.16;;;1.46;100.00
64192;BME280;50497;50.720;-2.084;2024-03-02T04:43:03;98086.63;;;1.35;100.00
64192;BME280;50497;50.720;-2.084;2024-03-02T04:45:29;98091.34;;;1.28;100.00
64192;BME280;50497;50.720;-2.084;2024-03-02T04:47:54;98100.25;;;1.25;100.00
64192;BME280;50497;50.720;-2.084;2024-03-02T04:50:20;98106.09;;;1.15;100.00
64192;BME280;50497;50.720;-2.084;2024-03-02T04:52:45;98116.84;;;1.10;100.00
64192;BME280;50497;50.720;-2.084;2024-03-02T04:55:11;98141.63;;;1.06;100.00
64192;BME280;50497;50.720;-2.084;2024-03-02T04:57:42;98158.66;;;0.99;100.00
64192;BME280;50497;50.720;-2.084;2024-03-02T05:00:09;98184.31;;;0.95;100.00
64192;BME280;50497;50.720;-2.084;2024-03-02T05:02:34;98208.91;;;0.94;100.00
64192;BME280;50497;50.720;-2.084;2024-03-02T05:05:00;98225.88;;;0.88;100.00
64192;BME280;50497;50.720;-2.084;2024-03-02T05:07:25;98244.50;;;0.84;100.00
64192;BME280;50497;50.720;-2.084;2024-03-02T05:09:51;98258.50;;;0.84;100.00
64192;BME280;50497;50.720;-2.084;2024-03-02T05:12:17;98282.28;;;0.83;100.00
64192;BME280;50497;50.720;-2.084;2024-03-02T05:15:06;98299.84;;;0.82;100.00
64192;BME280;50497;50.720;-2.084;2024-03-02T05:17:32;98320.00;;;0.83;100.00
64192;BME280;50497;50.720;-2.084;2024-03-02T05:19:58;98334.34;;;0.76;100.00
64192;BME280;50497;50.720;-2.084;2024-03-02T05:22:23;98345.00;;;0.73;100.00
64192;BME280;50497;50.720;-2.084;2024-03-02T05:24:49;98367.59;;;0.79;100.00
64192;BME280;50497;50.720;-2.084;2024-03-02T05:27:14;98377.34;;;0.77;100.00
64192;BME280;50497;50.720;-2.084;2024-03-02T05:29:40;98385.22;;;0.77;100.00
64192;BME280;50497;50.720;-2.084;2024-03-02T05:32:05;98409.00;;;0.75;100.00
64192;BME280;50497;50.720;-2.084;2024-03-02T05:34:31;98425.75;;;0.72;100.00
64192;BME280;50497;50.720;-2.084;2024-03-02T05:36:57;98442.03;;;0.62;100.00
64192;BME280;50497;50.720;-2.084;2024-03-02T05:39:23;98452.75;;;0.57;100.00
64192;BME280;50497;50.720;-2.084;2024-03-02T05:41:49;98454.72;;;0.52;100.00
64192;BME280;50497;50.720;-2.084;2024-03-02T05:44:14;98460.19;;;0.47;100.00
64192;BME280;50497;50.720;-2.084;2024-03-02T05:46:41;98469.00;;;0.46;100.00
64192;BME280;50497;50.720;-2.084;2024-03-02T05:49:06;98482.53;;;0.58;100.00
64192;BME280;50497;50.720;-2.084;2024-03-02T05:51:34;98490.97;;;0.66;100.00
64192;BME280;50497;50.720;-2.084;2024-03-02T05:54:01;98504.28;;;0.83;100.00
64192;BME280;50497;50.720;-2.084;2024-03-02T05:56:28;98498.56;;;0.92;100.00
64192;BME280;50497;50.720;-2.084;2024-03-02T05:58:53;98504.50;;;0.98;100.00
64192;BME280;50497;50.720;-2.084;2024-03-02T06:01:24;98490.66;;;1.13;100.00
64192;BME280;50497;50.720;-2.084;2024-03-02T06:03:55;98501.03;;;1.16;100.00
64192;BME280;50497;50.720;-2.084;2024-03-02T06:06:20;98484.06;;;1.23;100.00
64192;BME280;50497;50.720;-2.084;2024-03-02T06:08:46;98462.53;;;1.33;100.00
64192;BME280;50497;50.720;-2.084;2024-03-02T06:11:11;98441.69;;;1.47;100.00
64192;BME280;50497;50.720;-2.084;2024-03-02T06:13:36;98410.56;;;1.55;100.00
64192;BME280;50497;50.720;-2.084;2024-03-02T06:16:02;98378.50;;;1.64;100.00
64192;BME280;50497;50.720;-2.084;2024-03-02T06:18:27;98344.22;;;1.64;100.00
64192;BME280;50497;50.720;-2.084;2024-03-02T06:20:53;98312.41;;;1.67;100.00
64192;BME280;50497;50.720;-2.084;2024-03-02T06:23:18;98271.31;;;1.81;100.00
64192;BME280;50497;50.720;-2.084;2024-03-02T06:25:44;98213.31;;;1.81;100.00
64192;BME280;50497;50.720;-2.084;2024-03-02T06:28:09;98174.22;;;1.89;100.00
64192;BME280;50497;50.720;-2.084;2024-03-02T06:30:35;98124.75;;;1.94;100.00
64192;BME280;50497;50.720;-2.084;2024-03-02T06:33:00;98093.34;;;1.90;100.00
64192;BME280;50497;50.720;-2.084;2024-03-02T06:35:25;98079.06;;;1.94;100.00
64192;BME280;50497;50.720;-2.084;2024-03-02T06:37:51;98052.69;;;1.94;100.00
64192;BME280;50497;50.720;-2.084;2024-03-02T06:40:16;97998.84;;;1.98;100.00
64192;BME280;50497;50.720;-2.084;2024-03-02T06:42:42;97975.28;;;1.95;100.00
64192;BME280;50497;50.720;-2.084;2024-03-02T06:45:07;97925.88;;;1.98;100.00
64192;BME280;50497;50.720;-2.084;2024-03-02T06:47:33;97838.59;;;2.03;100.00
64192;BME280;50497;50.720;-2.084;2024-03-02T06:49:58;97780.47;;;2.05;100.00
64192;BME280;50497;50.720;-2.084;2024-03-02T06:52:24;97758.22;;;2.09;100.00
64192;BME280;50497;50.720;-2.084;2024-03-02T06:54:49;97729.78;;;2.14;100.00
64192;BME280;50497;50.720;-2.084;2024-03-02T06:57:15;97724.50;;;2.14;100.00
64192;BME280;50497;50.720;-2.084;2024-03-02T06:59:42;97695.97;;;2.20;100.00
64192;BME280;50497;50.720;-2.084;2024-03-02T07:02:07;97683.66;;;2.21;100.00
64192;BME280;50497;50.720;-2.084;2024-03-02T07:04:34;97663.84;;;2.28;100.00
64192;BME280;50497;50.720;-2.084;2024-03-02T07:06:59;97646.50;;;2.24;100.00
64192;BME280;50497;50.720;-2.084;2024-03-02T07:09:24;97628.22;;;2.35;100.00
64192;BME280;50497;50.720;-2.084;2024-03-02T07:11:51;97605.09;;;2.39;100.00
64192;BME280;50497;50.720;-2.084;2024-03-02T07:14:16;97588.03;;;2.45;100.00
64192;BME280;50497;50.720;-2.084;2024-03-02T07:16:42;97565.44;;;2.40;100.00
64192;BME280;50497;50.720;-2.084;2024-03-02T07:19:08;97551.94;;;2.45;100.00
64192;BME280;50497;50.720;-2.084;2024-03-02T07:21:34;97545.63;;;2.48;100.00
64192;BME280;50497;50.720;-2.084;2024-03-02T07:23:59;97525.25;;;2.50;100.00
64192;BME280;50497;50.720;-2.084;2024-03-02T07:26:28;97515.53;;;2.37;100.00
64192;BME280;50497;50.720;-2.084;2024-03-02T07:28:53;97516.59;;;2.48;100.00
64192;BME280;50497;50.720;-2.084;2024-03-02T07:31:19;97506.69;;;2.51;100.00
64192;BME280;50497;50.720;-2.084;2024-03-02T07:33:44;97491.59;;;2.53;100.00
64192;BME280;50497;50.720;-2.084;2024-03-02T07:36:11;97495.94;;;2.54;100.00
64192;BME280;50497;50.720;-2.084;2024-03-02T07:38:36;97487.25;;;2.52;100.00
64192;BME280;50497;50.720;-2.084;2024-03-02T07:41:02;97498.03;;;2.62;100.00
64192;BME280;50497;50.720;-2.084;2024-03-02T07:43:30;97516.94;;;2.69;100.00
64192;BME280;50497;50.720;-2.084;2024-03-02T07:45:56;97534.38;;;2.71;100.00
64192;BME280;50497;50.720;-2.084;2024-03-02T07:48:22;97547.59;;;2.71;100.00
64192;BME280;50497;50.720;-2.084;2024-03-02T07:50:48;97555.22;;;2.76;100.00
64192;BME280;50497;50.720;-2.084;2024-03-02T07:53:13;97555.66;;;2.83;100.00
64192;BME280;50497;50.720;-2.084;2024-03-02T07:55:40;97557.97;;;2.87;100.00
64192;BME280;50497;50.720;-2.084;2024-03-02T07:58:06;97552.91;;;2.97;100.00
64192;BME280;50497;50.720;-2.084;2024-03-02T08:00:31;97559.06;;;2.98;100.00
64192;BME280;50497;50.720;-2.084;2024-03-02T08:02:57;97567.59;;;3.01;100.00
64192;BME280;50497;50.720;-2.084;2024-03-02T08:05:23;97561.06;;;3.07;100.00
64192;BME280;50497;50.720;-2.084;2024-03-02T08:07:48;97582.63;;;3.13;100.00
64192;BME280;50497;50.720;-2.084;2024-03-02T08:10:18;97607.34;;;3.12;100.00
64192;BME280;50497;50.720;-2.084;2024-03-02T08:12:43;97631.88;;;3.14;100.00
64192;BME280;50497;50.720;-2.084;2024-03-02T08:15:09;97648.78;;;3.25;100.00
64192;BME280;50497;50.720;-2.084;2024-03-02T08:17:34;97672.06;;;3.32;100.00
64192;BME280;50497;50.720;-2.084;2024-03-02T08:19:59;97681.22;;;3.27;100.00
64192;BME280;50497;50.720;-2.084;2024-03-02T08:22:25;97676.81;;;3.40;100.00
64192;BME280;50497;50.720;-2.084;2024-03-02T08:24:51;97669.31;;;3.47;100.00
64192;BME280;50497;50.720;-2.084;2024-03-02T08:27:16;97662.78;;;3.53;100.00
64192;BME280;50497;50.720;-2.084;2024-03-02T08:29:42;97653.56;;;3.58;100.00
64192;BME280;50497;50.720;-2.084;2024-03-02T08:32:07;97628.75;;;3.61;100.00
64192;BME280;50497;50.720;-2.084;2024-03-02T08:34:33;97625.78;;;3.53;100.00
64192;BME280;50497;50.720;-2.084;2024-03-02T08:37:01;97620.25;;;3.68;100.00
64192;BME280;50497;50.720;-2.084;2024-03-02T08:39:27;97617.94;;;3.77;100.00
64192;BME280;50497;50.720;-2.084;2024-03-02T08:41:53;97603.34;;;3.71;100.00
64192;BME280;50497;50.720;-2.084;2024-03-02T08:44:19;97588.75;;;3.78;100.00
64192;BME280;50497;50.720;-2.084;2024-03-02T08:46:45;97554.88;;;3.83;100.00
64192;BME280;50497;50.720;-2.084;2024-03-02T08:49:12;97529.31;;;3.71;100.00
64192;BME280;50497;50.720;-2.084;2024-03-02T08:51:37;97496.47;;;3.86;100.00
64192;BME280;50497;50.720;-2.084;2024-03-02T08:54:02;97480.41;;;3.89;100.00
64192;BME280;50497;50.720;-2.084;2024-03-02T08:56:29;97465.66;;;3.98;100.00
64192;BME280;50497;50.720;-2.084;2024-03-02T08:58:55;97444.66;;;4.08;100.00
64192;BME280;50497;50.720;-2.084;2024-03-02T09:01:20;97431.00;;;4.14;100.00
64192;BME280;50497;50.720;-2.084;2024-03-02T09:03:46;97389.50;;;4.15;100.00
64192;BME280;50497;50.720;-2.084;2024-03-02T09:06:12;97336.34;;;4.18;100.00
64192;BME280;50497;50.720;-2.084;2024-03-02T09:08:39;97301.03;;;4.30;100.00
64192;BME280;50497;50.720;-2.084;2024-03-02T09:11:05;97285.28;;;4.29;100.00
64192;BME280;50497;50.720;-2.084;2024-03-02T09:13:32;97244.84;;;4.38;100.00
64192;BME280;50497;50.720;-2.084;2024-03-02T09:15:57;97233.78;;;4.33;100.00
64192;BME280;50497;50.720;-2.084;2024-03-02T09:18:23;97214.78;;;4.39;100.00
64192;BME280;50497;50.720;-2.084;2024-03-02T09:20:48;97168.53;;;4.54;100.00
64192;BME280;50497;50.720;-2.084;2024-03-02T09:23:14;97144.00;;;4.52;100.00
64192;BME280;50497;50.720;-2.084;2024-03-02T09:25:39;97124.94;;;4.70;100.00
64192;BME280;50497;50.720;-2.084;2024-03-02T09:28:05;97080.91;;;5.22;100.00
64192;BME280;50497;50.720;-2.084;2024-03-02T09:30:30;96991.16;;;6.49;100.00
64192;BME280;50497;50.720;-2.084;2024-03-02T09:32:56;96976.09;;;6.59;100.00
64192;BME280;50497;50.720;-2.084;2024-03-02T09:35:21;96747.81;;;8.47;100.00
64192;BME280;50497;50.720;-2.084;2024-03-02T09:37:47;96574.53;;;9.97;100.00
64192;BME280;50497;50.720;-2.084;2024-03-02T09:40:13;96505.97;;;10.29;100.00
64192;BME280;50497;50.720;-2.084;2024-03-02T09:42:40;96497.47;;;10.33;100.00
64192;BME280;50497;50.720;-2.084;2024-03-02T09:45:05;96647.00;;;9.36;100.00
64192;BME280;50497;50.720;-2.084;2024-03-02T09:47:31;96733.97;;;9.21;100.00
64192;BME280;50497;50.720;-2.084;2024-03-02T09:49:57;96749.91;;;10.21;100.00
64192;BME280;50497;50.720;-2.084;2024-03-02T09:52:23;96890.06;;;9.84;100.00
64192;BME280;50497;50.720;-2.084;2024-03-02T09:54:48;97066.66;;;9.19;100.00
64192;BME280;50497;50.720;-2.084;2024-03-02T09:57:14;97267.72;;;8.23;100.00
64192;BME280;50497;50.720;-2.084;2024-03-02T09:59:40;97455.81;;;7.54;100.00
64192;BME280;50497;50.720;-2.084;2024-03-02T10:02:06;97613.09;;;6.87;100.00
64192;BME280;50497;50.720;-2.084;2024-03-02T10:04:32;97714.19;;;6.96;100.00
64192;BME280;50497;50.720;-2.084;2024-03-02T10:07:11;97802.13;;;7.27;100.00
64192;BME280;50497;50.720;-2.084;2024-03-02T10:09:40;97805.03;;;8.73;100.00
64192;BME280;50497;50.720;-2.084;2024-03-02T10:12:10;97846.84;;;9.44;100.00
64192;BME280;50497;50.720;-2.084;2024-03-02T10:14:37;97935.03;;;9.42;100.00
64192;BME280;50497;50.720;-2.084;2024-03-02T10:17:07;98040.94;;;9.42;100.00
64192;BME280;50497;50.720;-2.084;2024-03-02T10:19:33;98122.91;;;10.03;100.00
64192;BME280;50497;50.720;-2.084;2024-03-02T10:22:01;98235.50;;;9.45;100.00
64192;BME280;50497;50.720;-2.084;2024-03-02T10:24:27;98391.97;;;8.56;100.00
64192;BME280;50497;50.720;-2.084;2024-03-02T10:26:53;98500.19;;;8.21;100.00
64192;BME280;50497;50.720;-2.084;2024-03-02T10:29:19;98562.16;;;8.36;100.00
64192;BME280;50497;50.720;-2.084;2024-03-02T10:31:45;98612.75;;;8.73;100.00
64192;BME280;50497;50.720;-2.084;2024-03-02T10:34:12;98672.00;;;8.40;100.00
64192;BME280;50497;50.720;-2.084;2024-03-02T10:36:41;98712.59;;;8.82;100.00
64192;BME280;50497;50.720;-2.084;2024-03-02T10:39:08;98758.25;;;8.64;100.00
64192;BME280;50497;50.720;-2.084;2024-03-02T10:41:35;98776.06;;;8.77;100.00
64192;BME280;50497;50.720;-2.084;2024-03-02T10:44:05;98810.50;;;8.28;100.00
64192;BME280;50497;50.720;-2.084;2024-03-02T10:46:32;98825.69;;;7.61;100.00
64192;BME280;50497;50.720;-2.084;2024-03-02T10:48:59;98794.16;;;8.33;100.00
64192;BME280;50497;50.720;-2.084;2024-03-02T10:51:29;98764.56;;;8.12;100.00
64192;BME280;50497;50.720;-2.084;2024-03-02T10:53:57;98746.06;;;7.30;100.00
64192;BME280;50497;50.720;-2.084;2024-03-02T10:56:39;98687.50;;;7.57;100.00
64192;BME280;50497;50.720;-2.084;2024-03-02T11:02:02;98597.22;;;7.54;100.00
64192;BME280;50497;50.720;-2.084;2024-03-02T11:04:30;98518.34;;;7.66;100.00
64192;BME280;50497;50.720;-2.084;2024-03-02T11:07:04;98506.56;;;7.06;100.00
64192;BME280;50497;50.720;-2.084;2024-03-02T11:09:32;98434.66;;;7.20;100.00
64192;BME280;50497;50.720;-2.084;2024-03-02T11:14:34;98385.97;;;6.94;100.00
64192;BME280;50497;50.720;-2.084;2024-03-02T11:17:03;98273.94;;;8.87;100.00
64192;BME280;50497;50.720;-2.084;2024-03-02T11:19:29;98208.50;;;10.84;100.00
64192;BME280;50497;50.720;-2.084;2024-03-02T11:21:56;98311.84;;;10.95;100.00
64192;BME280;50497;50.720;-2.084;2024-03-02T11:26:47;98381.63;;;11.94;100.00
64192;BME280;50497;50.720;-2.084;2024-03-02T11:32:00;98575.56;;;10.44;100.00
64192;BME280;50497;50.720;-2.084;2024-03-02T11:34:30;98592.09;;;10.15;100.00
64192;BME280;50497;50.720;-2.084;2024-03-02T11:36:55;98640.28;;;9.69;100.00
64192;BME280;50497;50.720;-2.084;2024-03-02T11:39:21;98631.31;;;9.92;100.00
64192;BME280;50497;50.720;-2.084;2024-03-02T11:41:46;98701.81;;;9.07;100.00
64192;BME280;50497;50.720;-2.084;2024-03-02T11:44:12;98696.31;;;9.22;100.00
64192;BME280;50497;50.720;-2.084;2024-03-02T11:46:39;98579.69;;;11.86;100.00
64192;BME280;50497;50.720;-2.084;2024-03-02T11:49:05;98538.84;;;13.89;100.00
64192;BME280;50497;50.720;-2.084;2024-03-02T11:51:33;98607.44;;;14.58;100.00
64192;BME280;50497;50.720;-2.084;2024-03-02T11:54:00;98749.47;;;14.17;100.00
64192;BME280;50497;50.720;-2.084;2024-03-02T11:56:28;98807.84;;;14.74;100.00
64192;BME280;50497;50.720;-2.084;2024-03-02T11:58:56;98906.94;;;15.08;100.00
64192;BME280;50497;50.720;-2.084;2024-03-02T12:01:22;98890.91;;;16.17;100.00
64192;BME280;50497;50.720;-2.084;2024-03-02T12:03:48;98985.94;;;13.90;100.00
64192;BME280;50497;50.720;-2.084;2024-03-02T12:06:14;98972.16;;;12.37;100.00
64192;BME280;50497;50.720;-2.084;2024-03-02T12:08:40;98897.41;;;11.56;100.00
64192;BME280;50497;50.720;-2.084;2024-03-02T12:11:05;98838.91;;;10.50;100.00
64192;BME280;50497;50.720;-2.084;2024-03-02T12:13:32;98869.94;;;9.32;100.00
64192;BME280;50497;50.720;-2.084;2024-03-02T12:15:58;98965.47;;;8.88;100.00
64192;BME280;50497;50.720;-2.084;2024-03-02T12:18:24;98955.06;;;8.45;100.00
64192;BME280;50497;50.720;-2.084;2024-03-02T12:20:50;98930.34;;;8.43;100.00
64192;BME280;50497;50.720;-2.084;2024-03-02T12:23:22;98888.25;;;8.61;100.00
64192;BME280;50497;50.720;-2.084;2024-03-02T12:25:48;98878.06;;;8.40;100.00
64192;BME280;50497;50.720;-2.084;2024-03-02T12:28:14;98887.97;;;7.98;100.00
64192;BME280;50497;50.720;-2.084;2024-03-02T12:30:39;98885.53;;;7.68;100.00
64192;BME280;50497;50.720;-2.084;2024-03-02T12:33:05;98884.34;;;7.86;100.00
64192;BME280;50497;50.720;-2.084;2024-03-02T12:35:30;98892.78;;;7.66;100.00
64192;BME280;50497;50.720;-2.084;2024-03-02T12:37:56;98881.22;;;8.07;100.00
64192;BME280;50497;50.720;-2.084;2024-03-02T12:40:22;98888.22;;;8.08;100.00
64192;BME280;50497;50.720;-2.084;2024-03-02T12:42:48;98886.00;;;8.67;100.00
64192;BME280;50497;50.720;-2.084;2024-03-02T12:45:15;98875.22;;;10.41;100.00
64192;BME280;50497;50.720;-2.084;2024-03-02T12:47:41;98905.25;;;12.35;100.00
64192;BME280;50497;50.720;-2.084;2024-03-02T12:50:08;98935.03;;;12.74;100.00
64192;BME280;50497;50.720;-2.084;2024-03-02T12:52:34;98934.06;;;13.58;100.00
64192;BME280;50497;50.720;-2.084;2024-03-02T12:55:00;99022.13;;;12.70;100.00
64192;BME280;50497;50.720;-2.084;2024-03-02T12:57:28;99001.13;;;13.60;100.00